sensor_id;sensor_type;location;lat;lon;timestamp;temperature;humidity
18446;DHT22;9352;50.888;4.466;2023-04-28T00:00:35;12.00;99.90
18446;DHT22;9352;50.888;4.466;2023-04-28T00:03:02;12.00;99.90
18446;DHT22;9352;50.888;4.466;2023-04-28T00:05:29;11.90;99.90
18446;DHT22;9352;50.888;4.466;2023-04-28T00:07:56;11.80;99.90
18446;DHT22;9352;50.888;4.466;2023-04-28T00:10:23;11.80;99.90
18446;DHT22;9352;50.888;4.466;2023-04-28T00:12:49;11.70;99.90
18446;DHT22;9352;50.888;4.466;2023-04-28T00:15:18;11.70;99.90
18446;DHT22;9352;50.888;4.466;2023-04-28T00:17:44;11.60;99.90
18446;DHT22;9352;50.888;4.466;2023-04-28T00:20:11;11.50;99.90
18446;DHT22;9352;50.888;4.466;2023-04-28T00:22:38;11.50;99.90
18446;DHT22;9352;50.888;4.466;2023-04-28T00:25:06;11.40;99.90
18446;DHT22;9352;50.888;4.466;2023-04-28T00:27:33;11.40;99.90
18446;DHT22;9352;50.888;4.466;2023-04-28T00:30:00;11.40;99.90
18446;DHT22;9352;50.888;4.466;2023-04-28T00:32:28;11.40;99.90
18446;DHT22;9352;50.888;4.466;2023-04-28T00:34:56;11.40;99.90
18446;DHT22;9352;50.888;4.466;2023-04-28T00:37:23;11.40;99.90
18446;DHT22;9352;50.888;4.466;2023-04-28T00:39:53;11.40;99.90
18446;DHT22;9352;50.888;4.466;2023-04-28T00:42:20;11.40;99.90
18446;DHT22;9352;50.888;4.466;2023-04-28T00:44:47;11.30;99.90
18446;DHT22;9352;50.888;4.466;2023-04-28T00:47:16;11.30;99.90
18446;DHT22;9352;50.888;4.466;2023-04-28T00:49:45;11.30;99.90
18446;DHT22;9352;50.888;4.466;2023-04-28T00:52:14;11.30;99.90
18446;DHT22;9352;50.888;4.466;2023-04-28T00:54:44;11.30;99.90
18446;DHT22;9352;50.888;4.466;2023-04-28T00:57:12;11.30;99.90
18446;DHT22;9352;50.888;4.466;2023-04-28T00:59:39;11.30;99.90
18446;DHT22;9352;50.888;4.466;2023-04-28T01:02:07;11.30;99.90
18446;DHT22;9352;50.888;4.466;2023-04-28T01:04:34;11.30;99.90
18446;DHT22;9352;50.888;4.466;2023-04-28T01:07:03;11.30;99.90
18446;DHT22;9352;50.888;4.466;2023-04-28T01:09:30;11.30;99.90
18446;DHT22;9352;50.888;4.466;2023-04-28T01:11:56;11.30;99.90
18446;DHT22;9352;50.888;4.466;2023-04-28T01:14:23;11.30;99.90
18446;DHT22;9352;50.888;4.466;2023-04-28T01:16:52;11.30;99.90
18446;DHT22;9352;50.888;4.466;2023-04-28T01:19:20;11.20;99.90
18446;DHT22;9352;50.888;4.466;2023-04-28T01:21:47;11.30;99.90
18446;DHT22;9352;50.888;4.466;2023-04-28T01:24:16;11.30;99.90
18446;DHT22;9352;50.888;4.466;2023-04-28T01:26:43;11.30;99.90
18446;DHT22;9352;50.888;4.466;2023-04-28T01:29:10;11.20;99.90
18446;DHT22;9352;50.888;4.466;2023-04-28T01:31:37;11.30;99.90
18446;DHT22;9352;50.888;4.466;2023-04-28T01:34:04;11.30;99.90
18446;DHT22;9352;50.888;4.466;2023-04-28T01:36:31;11.30;99.90
18446;DHT22;9352;50.888;4.466;2023-04-28T01:38:58;11.30;99.90
18446;DHT22;9352;50.888;4.466;2023-04-28T01:41:27;11.30;99.90
18446;DHT22;9352;50.888;4.466;2023-04-28T01:43:53;11.30;99.90
18446;DHT22;9352;50.888;4.466;2023-04-28T01:46:20;11.20;99.90
18446;DHT22;9352;50.888;4.466;2023-04-28T01:48:47;11.20;99.90
18446;DHT22;9352;50.888;4.466;2023-04-28T01:51:14;11.20;99.90
18446;DHT22;9352;50.888;4.466;2023-04-28T01:53:41;11.20;99.90
18446;DHT22;9352;50.888;4.466;2023-04-28T01:56:08;11.10;99.90
18446;DHT22;9352;50.888;4.466;2023-04-28T01:58:36;11.10;99.90
18446;DHT22;9352;50.888;4.466;2023-04-28T02:01:03;11.10;99.90
18446;DHT22;9352;50.888;4.466;2023-04-28T02:03:31;11.10;99.90
18446;DHT22;9352;50.888;4.466;2023-04-28T02:05:57;11.00;99.90
18446;DHT22;9352;50.888;4.466;2023-04-28T02:08:24;10.90;99.90
18446;DHT22;9352;50.888;4.466;2023-04-28T02:10:51;10.90;99.90
18446;DHT22;9352;50.888;4.466;2023-04-28T02:13:18;10.90;99.90
18446;DHT22;9352;50.888;4.466;2023-04-28T02:15:46;10.80;99.90
18446;DHT22;9352;50.888;4.466;2023-04-28T02:18:13;10.70;99.90
18446;DHT22;9352;50.888;4.466;2023-04-28T02:20:40;10.60;99.90
18446;DHT22;9352;50.888;4.466;2023-04-28T02:23:07;10.60;99.90
18446;DHT22;9352;50.888;4.466;2023-04-28T02:25:34;10.60;99.90
18446;DHT22;9352;50.888;4.466;2023-04-28T02:28:01;10.60;99.90
18446;DHT22;9352;50.888;4.466;2023-04-28T02:30:28;10.60;99.90
18446;DHT22;9352;50.888;4.466;2023-04-28T02:32:56;10.60;99.90
18446;DHT22;9352;50.888;4.466;2023-04-28T02:35:23;10.70;99.90
18446;DHT22;9352;50.888;4.466;2023-04-28T02:37:50;10.70;99.90
18446;DHT22;9352;50.888;4.466;2023-04-28T02:40:18;10.70;99.90
18446;DHT22;9352;50.888;4.466;2023-04-28T02:42:45;10.80;99.90
18446;DHT22;9352;50.888;4.466;2023-04-28T02:45:12;10.80;99.90
18446;DHT22;9352;50.888;4.466;2023-04-28T02:47:39;10.80;99.90
18446;DHT22;9352;50.888;4.466;2023-04-28T02:50:08;10.90;99.90
18446;DHT22;9352;50.888;4.466;2023-04-28T02:52:35;10.80;99.90
18446;DHT22;9352;50.888;4.466;2023-04-28T02:55:03;10.90;99.90
18446;DHT22;9352;50.888;4.466;2023-04-28T02:57:30;10.90;99.90
18446;DHT22;9352;50.888;4.466;2023-04-28T02:59:56;10.90;99.90
18446;DHT22;9352;50.888;4.466;2023-04-28T03:02:23;10.90;99.90
18446;DHT22;9352;50.888;4.466;2023-04-28T03:04:50;10.80;99.90
18446;DHT22;9352;50.888;4.466;2023-04-28T03:07:18;10.70;99.90
18446;DHT22;9352;50.888;4.466;2023-04-28T03:09:45;10.80;99.90
18446;DHT22;9352;50.888;4.466;2023-04-28T03:12:13;10.80;99.90
18446;DHT22;9352;50.888;4.466;2023-04-28T03:14:40;10.80;99.90
18446;DHT22;9352;50.888;4.466;2023-04-28T03:17:07;10.90;99.90
18446;DHT22;9352;50.888;4.466;2023-04-28T03:19:34;10.80;99.90
18446;DHT22;9352;50.888;4.466;2023-04-28T03:22:00;10.80;99.90
18446;DHT22;9352;50.888;4.466;2023-04-28T03:24:29;10.90;99.90
18446;DHT22;9352;50.888;4.466;2023-04-28T03:26:56;10.80;99.90
18446;DHT22;9352;50.888;4.466;2023-04-28T03:29:22;10.90;99.90
18446;DHT22;9352;50.888;4.466;2023-04-28T03:31:50;10.90;99.90
18446;DHT22;9352;50.888;4.466;2023-04-28T03:34:17;10.90;99.90
18446;DHT22;9352;50.888;4.466;2023-04-28T03:36:44;11.00;99.90
18446;DHT22;9352;50.888;4.466;2023-04-28T03:39:11;11.00;99.90
18446;DHT22;9352;50.888;4.466;2023-04-28T03:41:39;11.00;99.90
18446;DHT22;9352;50.888;4.466;2023-04-28T03:44:06;11.00;99.90
18446;DHT22;9352;50.888;4.466;2023-04-28T03:46:33;11.00;99.90
18446;DHT22;9352;50.888;4.466;2023-04-28T03:49:00;11.00;99.90
18446;DHT22;9352;50.888;4.466;2023-04-28T03:51:27;11.00;99.90
18446;DHT22;9352;50.888;4.466;2023-04-28T03:53:54;11.00;99.90
18446;DHT22;9352;50.888;4.466;2023-04-28T03:56:21;11.00;99.90
18446;DHT22;9352;50.888;4.466;2023-04-28T03:58:49;11.10;99.90
18446;DHT22;9352;50.888;4.466;2023-04-28T04:01:16;11.10;99.90
18446;DHT22;9352;50.888;4.466;2023-04-28T04:03:43;11.10;99.90
18446;DHT22;9352;50.888;4.466;2023-04-28T04:06:10;11.00;99.90
18446;DHT22;9352;50.888;4.466;2023-04-28T04:08:37;11.10;99.90
18446;DHT22;9352;50.888;4.466;2023-04-28T04:11:04;11.00;99.90
18446;DHT22;9352;50.888;4.466;2023-04-28T04:13:31;11.00;99.90
18446;DHT22;9352;50.888;4.466;2023-04-28T04:15:59;11.00;99.90
18446;DHT22;9352;50.888;4.466;2023-04-28T04:18:26;11.00;99.90
18446;DHT22;9352;50.888;4.466;2023-04-28T04:20:54;11.00;99.90
18446;DHT22;9352;50.888;4.466;2023-04-28T04:23:22;11.10;99.90
18446;DHT22;9352;50.888;4.466;2023-04-28T04:25:49;11.10;99.90
18446;DHT22;9352;50.888;4.466;2023-04-28T04:28:16;11.10;99.90
18446;DHT22;9352;50.888;4.466;2023-04-28T04:30:43;11.20;99.90
18446;DHT22;9352;50.888;4.466;2023-04-28T04:33:11;11.20;99.90
18446;DHT22;9352;50.888;4.466;2023-04-28T04:35:38;11.20;99.90
18446;DHT22;9352;50.888;4.466;2023-04-28T04:38:05;11.20;99.90
18446;DHT22;9352;50.888;4.466;2023-04-28T04:40:32;11.20;99.90
18446;DHT22;9352;50.888;4.466;2023-04-28T04:42:59;11.20;99.90
18446;DHT22;9352;50.888;4.466;2023-04-28T04:45:26;11.30;99.90
18446;DHT22;9352;50.888;4.466;2023-04-28T04:47:53;11.30;99.90
18446;DHT22;9352;50.888;4.466;2023-04-28T04:50:22;11.40;99.90
18446;DHT22;9352;50.888;4.466;2023-04-28T04:52:49;11.30;99.90
18446;DHT22;9352;50.888;4.466;2023-04-28T04:55:15;11.40;99.90
18446;DHT22;9352;50.888;4.466;2023-04-28T04:57:42;11.40;99.90
18446;DHT22;9352;50.888;4.466;2023-04-28T05:00:10;11.40;99.90
18446;DHT22;9352;50.888;4.466;2023-04-28T05:02:37;11.50;99.90
18446;DHT22;9352;50.888;4.466;2023-04-28T05:05:04;11.50;99.90
18446;DHT22;9352;50.888;4.466;2023-04-28T05:07:33;11.50;99.90
18446;DHT22;9352;50.888;4.466;2023-04-28T05:10:00;11.50;99.90
18446;DHT22;9352;50.888;4.466;2023-04-28T05:12:27;11.60;99.90
18446;DHT22;9352;50.888;4.466;2023-04-28T05:14:54;11.60;99.90
18446;DHT22;9352;50.888;4.466;2023-04-28T05:17:21;11.60;99.90
18446;DHT22;9352;50.888;4.466;2023-04-28T05:19:48;11.70;99.90
18446;DHT22;9352;50.888;4.466;2023-04-28T05:22:15;12.00;99.90
18446;DHT22;9352;50.888;4.466;2023-04-28T05:24:43;12.10;99.90
18446;DHT22;9352;50.888;4.466;2023-04-28T05:27:10;12.00;99.90
18446;DHT22;9352;50.888;4.466;2023-04-28T05:29:37;12.10;99.90
18446;DHT22;9352;50.888;4.466;2023-04-28T05:32:04;12.10;99.90
18446;DHT22;9352;50.888;4.466;2023-04-28T05:34:31;12.20;99.90
18446;DHT22;9352;50.888;4.466;2023-04-28T05:36:57;12.10;99.90
18446;DHT22;9352;50.888;4.466;2023-04-28T05:39:25;12.20;99.90
18446;DHT22;9352;50.888;4.466;2023-04-28T05:41:53;12.00;99.90
18446;DHT22;9352;50.888;4.466;2023-04-28T05:44:20;12.00;99.90
18446;DHT22;9352;50.888;4.466;2023-04-28T05:46:47;12.10;99.90
18446;DHT22;9352;50.888;4.466;2023-04-28T05:49:14;12.10;99.90
18446;DHT22;9352;50.888;4.466;2023-04-28T05:51:41;12.10;99.90
18446;DHT22;9352;50.888;4.466;2023-04-28T05:54:09;12.10;99.90
18446;DHT22;9352;50.888;4.466;2023-04-28T05:56:36;12.10;99.90
18446;DHT22;9352;50.888;4.466;2023-04-28T05:59:04;12.10;99.90
18446;DHT22;9352;50.888;4.466;2023-04-28T06:01:31;12.10;99.90
18446;DHT22;9352;50.888;4.466;2023-04-28T06:03:58;12.20;99.90
18446;DHT22;9352;50.888;4.466;2023-04-28T06:06:25;12.30;99.90
18446;DHT22;9352;50.888;4.466;2023-04-28T06:08:52;12.30;99.90
18446;DHT22;9352;50.888;4.466;2023-04-28T06:11:19;12.40;99.90
18446;DHT22;9352;50.888;4.466;2023-04-28T06:13:47;12.50;99.90
18446;DHT22;9352;50.888;4.466;2023-04-28T06:16:16;12.60;99.90
18446;DHT22;9352;50.888;4.466;2023-04-28T06:18:43;12.80;99.90
18446;DHT22;9352;50.888;4.466;2023-04-28T06:21:10;12.90;99.90
18446;DHT22;9352;50.888;4.466;2023-04-28T06:23:37;13.10;99.90
18446;DHT22;9352;50.888;4.466;2023-04-28T06:26:05;13.30;99.90
18446;DHT22;9352;50.888;4.466;2023-04-28T06:28:32;13.50;99.90
18446;DHT22;9352;50.888;4.466;2023-04-28T06:30:59;13.60;99.90
18446;DHT22;9352;50.888;4.466;2023-04-28T06:33:27;13.70;99.90
18446;DHT22;9352;50.888;4.466;2023-04-28T06:35:54;13.80;99.90
18446;DHT22;9352;50.888;4.466;2023-04-28T06:38:21;14.00;99.90
18446;DHT22;9352;50.888;4.466;2023-04-28T06:40:48;14.20;99.90
18446;DHT22;9352;50.888;4.466;2023-04-28T06:43:15;14.30;99.90
18446;DHT22;9352;50.888;4.466;2023-04-28T06:45:42;14.40;99.90
18446;DHT22;9352;50.888;4.466;2023-04-28T06:48:08;14.50;99.90
18446;DHT22;9352;50.888;4.466;2023-04-28T06:50:37;14.60;99.90
18446;DHT22;9352;50.888;4.466;2023-04-28T06:53:04;14.70;99.90
18446;DHT22;9352;50.888;4.466;2023-04-28T06:55:32;14.80;99.90
18446;DHT22;9352;50.888;4.466;2023-04-28T06:57:59;14.90;99.90
18446;DHT22;9352;50.888;4.466;2023-04-28T07:00:26;15.00;99.90
18446;DHT22;9352;50.888;4.466;2023-04-28T07:02:53;14.90;99.90
18446;DHT22;9352;50.888;4.466;2023-04-28T07:05:20;15.00;99.90
18446;DHT22;9352;50.888;4.466;2023-04-28T07:07:48;15.10;99.90
18446;DHT22;9352;50.888;4.466;2023-04-28T07:10:16;15.10;99.90
18446;DHT22;9352;50.888;4.466;2023-04-28T07:12:43;15.10;99.90
18446;DHT22;9352;50.888;4.466;2023-04-28T07:15:10;15.00;99.90
18446;DHT22;9352;50.888;4.466;2023-04-28T07:17:37;15.00;99.90
18446;DHT22;9352;50.888;4.466;2023-04-28T07:20:05;15.00;99.90
18446;DHT22;9352;50.888;4.466;2023-04-28T07:22:32;15.00;99.90
18446;DHT22;9352;50.888;4.466;2023-04-28T07:25:00;15.10;99.90
18446;DHT22;9352;50.888;4.466;2023-04-28T07:27:27;15.10;99.90
18446;DHT22;9352;50.888;4.466;2023-04-28T07:29:54;15.00;99.90
18446;DHT22;9352;50.888;4.466;2023-04-28T07:32:21;15.00;99.90
18446;DHT22;9352;50.888;4.466;2023-04-28T07:34:48;15.00;99.90
18446;DHT22;9352;50.888;4.466;2023-04-28T07:37:15;14.90;99.90
18446;DHT22;9352;50.888;4.466;2023-04-28T07:39:42;14.90;99.90
18446;DHT22;9352;50.888;4.466;2023-04-28T07:42:11;14.90;99.90
18446;DHT22;9352;50.888;4.466;2023-04-28T07:44:37;15.00;99.90
18446;DHT22;9352;50.888;4.466;2023-04-28T07:47:04;15.30;99.90
18446;DHT22;9352;50.888;4.466;2023-04-28T07:49:32;15.60;99.90
18446;DHT22;9352;50.888;4.466;2023-04-28T07:51:59;15.80;99.90
18446;DHT22;9352;50.888;4.466;2023-04-28T07:54:25;16.10;99.90
18446;DHT22;9352;50.888;4.466;2023-04-28T07:56:52;16.20;99.90
18446;DHT22;9352;50.888;4.466;2023-04-28T07:59:21;16.20;99.90
18446;DHT22;9352;50.888;4.466;2023-04-28T08:01:48;16.50;99.90
18446;DHT22;9352;50.888;4.466;2023-04-28T08:04:15;16.70;99.90
18446;DHT22;9352;50.888;4.466;2023-04-28T08:06:42;16.70;99.90
18446;DHT22;9352;50.888;4.466;2023-04-28T08:09:08;16.90;99.90
18446;DHT22;9352;50.888;4.466;2023-04-28T08:11:35;17.00;99.90
18446;DHT22;9352;50.888;4.466;2023-04-28T08:14:02;17.20;99.90
18446;DHT22;9352;50.888;4.466;2023-04-28T08:16:31;17.20;99.90
18446;DHT22;9352;50.888;4.466;2023-04-28T08:18:59;17.00;99.90
18446;DHT22;9352;50.888;4.466;2023-04-28T08:21:26;17.10;99.90
18446;DHT22;9352;50.888;4.466;2023-04-28T08:23:52;17.10;99.90
18446;DHT22;9352;50.888;4.466;2023-04-28T08:26:19;17.00;99.90
18446;DHT22;9352;50.888;4.466;2023-04-28T08:28:46;17.00;99.90
18446;DHT22;9352;50.888;4.466;2023-04-28T08:31:13;17.00;99.90
18446;DHT22;9352;50.888;4.466;2023-04-28T08:33:41;17.10;99.90
18446;DHT22;9352;50.888;4.466;2023-04-28T08:36:12;17.00;99.90
18446;DHT22;9352;50.888;4.466;2023-04-28T08:38:40;16.90;99.90
18446;DHT22;9352;50.888;4.466;2023-04-28T08:41:07;16.80;99.90
18446;DHT22;9352;50.888;4.466;2023-04-28T08:43:34;16.80;99.90
18446;DHT22;9352;50.888;4.466;2023-04-28T08:46:05;16.70;99.90
18446;DHT22;9352;50.888;4.466;2023-04-28T08:48:38;16.60;99.90
18446;DHT22;9352;50.888;4.466;2023-04-28T08:51:07;16.70;99.90
18446;DHT22;9352;50.888;4.466;2023-04-28T08:53:37;16.80;99.90
18446;DHT22;9352;50.888;4.466;2023-04-28T08:56:05;16.80;99.90
18446;DHT22;9352;50.888;4.466;2023-04-28T08:58:34;16.80;99.90
18446;DHT22;9352;50.888;4.466;2023-04-28T09:01:01;16.90;99.90
18446;DHT22;9352;50.888;4.466;2023-04-28T09:03:29;17.00;99.90
18446;DHT22;9352;50.888;4.466;2023-04-28T09:05:57;17.10;99.90
18446;DHT22;9352;50.888;4.466;2023-04-28T09:08:26;17.10;99.90
18446;DHT22;9352;50.888;4.466;2023-04-28T09:11:06;17.10;99.90
18446;DHT22;9352;50.888;4.466;2023-04-28T09:13:34;17.30;99.90
18446;DHT22;9352;50.888;4.466;2023-04-28T09:16:01;17.30;99.90
18446;DHT22;9352;50.888;4.466;2023-04-28T09:18:29;17.50;99.90
18446;DHT22;9352;50.888;4.466;2023-04-28T09:21:04;17.70;99.90
18446;DHT22;9352;50.888;4.466;2023-04-28T09:23:33;17.80;99.90
18446;DHT22;9352;50.888;4.466;2023-04-28T09:26:02;17.90;99.90
18446;DHT22;9352;50.888;4.466;2023-04-28T09:28:29;18.10;99.90
18446;DHT22;9352;50.888;4.466;2023-04-28T09:30:56;18.30;99.90
18446;DHT22;9352;50.888;4.466;2023-04-28T09:33:24;18.60;99.90
18446;DHT22;9352;50.888;4.466;2023-04-28T09:35:50;18.70;99.90
18446;DHT22;9352;50.888;4.466;2023-04-28T09:38:19;18.90;99.90
18446;DHT22;9352;50.888;4.466;2023-04-28T09:40:52;19.00;99.90
18446;DHT22;9352;50.888;4.466;2023-04-28T09:43:27;19.00;99.90
18446;DHT22;9352;50.888;4.466;2023-04-28T09:45:55;19.20;99.90
18446;DHT22;9352;50.888;4.466;2023-04-28T09:48:27;19.40;99.90
18446;DHT22;9352;50.888;4.466;2023-04-28T09:50:55;19.50;99.90
18446;DHT22;9352;50.888;4.466;2023-04-28T09:53:23;19.60;99.90
18446;DHT22;9352;50.888;4.466;2023-04-28T09:55:53;19.60;99.90
18446;DHT22;9352;50.888;4.466;2023-04-28T09:58:22;19.50;99.90
18446;DHT22;9352;50.888;4.466;2023-04-28T10:00:51;19.60;99.90
18446;DHT22;9352;50.888;4.466;2023-04-28T10:03:21;19.50;99.90
18446;DHT22;9352;50.888;4.466;2023-04-28T10:05:49;19.70;99.90
18446;DHT22;9352;50.888;4.466;2023-04-28T10:08:18;20.30;99.90
18446;DHT22;9352;50.888;4.466;2023-04-28T10:10:47;20.70;99.90
18446;DHT22;9352;50.888;4.466;2023-04-28T10:13:16;20.70;99.90
18446;DHT22;9352;50.888;4.466;2023-04-28T10:15:44;20.70;99.90
18446;DHT22;9352;50.888;4.466;2023-04-28T10:18:11;20.50;99.90
18446;DHT22;9352;50.888;4.466;2023-04-28T10:20:39;20.30;99.90
18446;DHT22;9352;50.888;4.466;2023-04-28T10:23:30;20.10;99.90
18446;DHT22;9352;50.888;4.466;2023-04-28T10:26:00;19.90;99.90
18446;DHT22;9352;50.888;4.466;2023-04-28T10:28:29;19.70;99.90
18446;DHT22;9352;50.888;4.466;2023-04-28T10:31:09;19.30;99.90
18446;DHT22;9352;50.888;4.466;2023-04-28T10:33:37;19.10;99.90
18446;DHT22;9352;50.888;4.466;2023-04-28T10:36:05;18.80;99.90
18446;DHT22;9352;50.888;4.466;2023-04-28T10:38:33;18.60;99.90
18446;DHT22;9352;50.888;4.466;2023-04-28T10:41:00;18.30;99.90
18446;DHT22;9352;50.888;4.466;2023-04-28T10:43:36;18.20;99.90
18446;DHT22;9352;50.888;4.466;2023-04-28T10:46:05;18.30;99.90
18446;DHT22;9352;50.888;4.466;2023-04-28T10:48:55;18.70;99.90
18446;DHT22;9352;50.888;4.466;2023-04-28T10:51:29;19.20;99.90
18446;DHT22;9352;50.888;4.466;2023-04-28T10:54:15;19.40;99.90
18446;DHT22;9352;50.888;4.466;2023-04-28T10:57:18;19.50;99.90
18446;DHT22;9352;50.888;4.466;2023-04-28T10:59:49;20.00;99.90
18446;DHT22;9352;50.888;4.466;2023-04-28T11:02:38;20.00;99.90
18446;DHT22;9352;50.888;4.466;2023-04-28T11:05:14;19.50;99.90
18446;DHT22;9352;50.888;4.466;2023-04-28T11:11:17;19.00;99.90
18446;DHT22;9352;50.888;4.466;2023-04-28T11:13:44;18.70;99.90
18446;DHT22;9352;50.888;4.466;2023-04-28T11:16:16;18.60;99.90
18446;DHT22;9352;50.888;4.466;2023-04-28T11:18:57;18.50;99.90
18446;DHT22;9352;50.888;4.466;2023-04-28T11:21:27;18.60;99.90
18446;DHT22;9352;50.888;4.466;2023-04-28T11:23:53;18.40;99.90
18446;DHT22;9352;50.888;4.466;2023-04-28T11:26:20;18.50;99.90
18446;DHT22;9352;50.888;4.466;2023-04-28T11:28:50;18.70;99.90
18446;DHT22;9352;50.888;4.466;2023-04-28T11:31:18;18.90;99.90
18446;DHT22;9352;50.888;4.466;2023-04-28T11:33:59;18.90;99.90
18446;DHT22;9352;50.888;4.466;2023-04-28T11:36:31;18.80;99.90
18446;DHT22;9352;50.888;4.466;2023-04-28T11:39:00;18.50;99.90
18446;DHT22;9352;50.888;4.466;2023-04-28T11:41:30;18.20;99.90
18446;DHT22;9352;50.888;4.466;2023-04-28T11:43:57;17.80;99.90
18446;DHT22;9352;50.888;4.466;2023-04-28T11:46:26;17.80;99.90
18446;DHT22;9352;50.888;4.466;2023-04-28T11:49:00;17.80;99.90
18446;DHT22;9352;50.888;4.466;2023-04-28T11:51:29;17.60;99.90
18446;DHT22;9352;50.888;4.466;2023-04-28T11:53:57;17.50;99.90
18446;DHT22;9352;50.888;4.466;2023-04-28T11:56:24;17.50;99.90
18446;DHT22;9352;50.888;4.466;2023-04-28T11:59:01;17.40;99.90
18446;DHT22;9352;50.888;4.466;2023-04-28T12:01:30;17.40;99.90
18446;DHT22;9352;50.888;4.466;2023-04-28T12:03:57;17.30;99.90
18446;DHT22;9352;50.888;4.466;2023-04-28T12:06:24;17.20;99.90
18446;DHT22;9352;50.888;4.466;2023-04-28T12:08:53;17.20;99.90
18446;DHT22;9352;50.888;4.466;2023-04-28T12:11:20;17.30;99.90
18446;DHT22;9352;50.888;4.466;2023-04-28T12:14:04;17.50;99.90
18446;DHT22;9352;50.888;4.466;2023-04-28T12:16:42;17.30;99.90
18446;DHT22;9352;50.888;4.466;2023-04-28T12:19:11;17.20;99.90
18446;DHT22;9352;50.888;4.466;2023-04-28T12:21:40;17.20;99.90
18446;DHT22;9352;50.888;4.466;2023-04-28T12:24:17;17.30;99.90
18446;DHT22;9352;50.888;4.466;2023-04-28T12:26:44;17.40;99.90
18446;DHT22;9352;50.888;4.466;2023-04-28T12:29:33;17.50;99.90
18446;DHT22;9352;50.888;4.466;2023-04-28T12:32:02;17.50;99.90
18446;DHT22;9352;50.888;4.466;2023-04-28T12:34:29;17.50;99.90
18446;DHT22;9352;50.888;4.466;2023-04-28T12:36:58;17.30;99.90
18446;DHT22;9352;50.888;4.466;2023-04-28T12:39:25;17.00;99.90
18446;DHT22;9352;50.888;4.466;2023-04-28T12:41:52;16.90;99.90
18446;DHT22;9352;50.888;4.466;2023-04-28T12:44:19;16.80;99.90
18446;DHT22;9352;50.888;4.466;2023-04-28T12:46:47;16.80;99.90
18446;DHT22;9352;50.888;4.466;2023-04-28T12:49:15;16.80;99.90
18446;DHT22;9352;50.888;4.466;2023-04-28T12:51:42;17.10;99.90
18446;DHT22;9352;50.888;4.466;2023-04-28T12:54:09;17.00;99.90
18446;DHT22;9352;50.888;4.466;2023-04-28T12:56:36;16.90;99.90
18446;DHT22;9352;50.888;4.466;2023-04-28T12:59:03;16.80;99.90
18446;DHT22;9352;50.888;4.466;2023-04-28T13:01:30;16.80;99.90
18446;DHT22;9352;50.888;4.466;2023-04-28T13:03:58;17.10;99.90
18446;DHT22;9352;50.888;4.466;2023-04-28T13:06:27;17.30;99.90
18446;DHT22;9352;50.888;4.466;2023-04-28T13:08:54;17.30;99.90
18446;DHT22;9352;50.888;4.466;2023-04-28T13:11:21;17.10;99.90
18446;DHT22;9352;50.888;4.466;2023-04-28T13:13:51;17.10;99.90
18446;DHT22;9352;50.888;4.466;2023-04-28T13:16:18;17.40;99.90
18446;DHT22;9352;50.888;4.466;2023-04-28T13:18:45;17.50;99.90
18446;DHT22;9352;50.888;4.466;2023-04-28T13:21:13;17.60;99.90
18446;DHT22;9352;50.888;4.466;2023-04-28T13:23:41;17.60;99.90
18446;DHT22;9352;50.888;4.466;2023-04-28T13:26:08;17.40;99.90
18446;DHT22;9352;50.888;4.466;2023-04-28T13:28:35;17.30;99.90
18446;DHT22;9352;50.888;4.466;2023-04-28T13:31:02;17.20;99.90
18446;DHT22;9352;50.888;4.466;2023-04-28T13:33:29;17.00;99.90
18446;DHT22;9352;50.888;4.466;2023-04-28T13:35:57;17.00;99.90
18446;DHT22;9352;50.888;4.466;2023-04-28T13:38:24;16.90;99.90
18446;DHT22;9352;50.888;4.466;2023-04-28T13:40:52;17.00;99.90
18446;DHT22;9352;50.888;4.466;2023-04-28T13:43:19;17.10;99.90
18446;DHT22;9352;50.888;4.466;2023-04-28T13:45:46;17.10;99.90
18446;DHT22;9352;50.888;4.466;2023-04-28T13:48:14;17.10;99.90
18446;DHT22;9352;50.888;4.466;2023-04-28T13:50:41;17.20;99.90
18446;DHT22;9352;50.888;4.466;2023-04-28T13:53:08;17.30;99.90
18446;DHT22;9352;50.888;4.466;2023-04-28T13:55:35;17.20;99.90
18446;DHT22;9352;50.888;4.466;2023-04-28T13:58:04;17.20;99.90
18446;DHT22;9352;50.888;4.466;2023-04-28T14:00:31;17.00;99.90
18446;DHT22;9352;50.888;4.466;2023-04-28T14:02:59;16.80;99.90
18446;DHT22;9352;50.888;4.466;2023-04-28T14:05:26;16.70;99.90
18446;DHT22;9352;50.888;4.466;2023-04-28T14:07:53;16.80;99.90
18446;DHT22;9352;50.888;4.466;2023-04-28T14:10:20;16.90;99.90
18446;DHT22;9352;50.888;4.466;2023-04-28T14:12:47;17.00;99.90
18446;DHT22;9352;50.888;4.466;2023-04-28T14:15:16;17.00;99.90
18446;DHT22;9352;50.888;4.466;2023-04-28T14:17:43;17.10;99.90
18446;DHT22;9352;50.888;4.466;2023-04-28T14:20:10;17.20;99.90
18446;DHT22;9352;50.888;4.466;2023-04-28T14:22:37;17.20;99.90
18446;DHT22;9352;50.888;4.466;2023-04-28T14:25:06;17.20;99.90
18446;DHT22;9352;50.888;4.466;2023-04-28T14:27:33;17.20;99.90
18446;DHT22;9352;50.888;4.466;2023-04-28T14:30:00;17.00;99.90
18446;DHT22;9352;50.888;4.466;2023-04-28T14:32:29;17.10;99.90
18446;DHT22;9352;50.888;4.466;2023-04-28T14:34:56;17.10;99.90
18446;DHT22;9352;50.888;4.466;2023-04-28T14:37:23;17.10;99.90
18446;DHT22;9352;50.888;4.466;2023-04-28T14:39:50;17.10;99.90
18446;DHT22;9352;50.888;4.466;2023-04-28T14:42:17;17.10;99.90
18446;DHT22;9352;50.888;4.466;2023-04-28T14:44:44;17.00;99.90
18446;DHT22;9352;50.888;4.466;2023-04-28T14:47:12;17.10;99.90
18446;DHT22;9352;50.888;4.466;2023-04-28T14:49:41;16.90;99.90
18446;DHT22;9352;50.888;4.466;2023-04-28T14:52:08;16.90;99.90
18446;DHT22;9352;50.888;4.466;2023-04-28T14:54:35;17.10;99.90
18446;DHT22;9352;50.888;4.466;2023-04-28T14:57:02;17.20;99.90
18446;DHT22;9352;50.888;4.466;2023-04-28T14:59:29;17.50;99.90
18446;DHT22;9352;50.888;4.466;2023-04-28T15:01:56;17.70;99.90
18446;DHT22;9352;50.888;4.466;2023-04-28T15:04:23;17.80;99.90
18446;DHT22;9352;50.888;4.466;2023-04-28T15:06:55;18.00;99.90
18446;DHT22;9352;50.888;4.466;2023-04-28T15:09:23;18.10;99.90
18446;DHT22;9352;50.888;4.466;2023-04-28T15:11:51;18.20;99.90
18446;DHT22;9352;50.888;4.466;2023-04-28T15:14:18;18.50;99.90
18446;DHT22;9352;50.888;4.466;2023-04-28T15:16:45;19.10;99.90
18446;DHT22;9352;50.888;4.466;2023-04-28T15:19:13;19.60;99.90
18446;DHT22;9352;50.888;4.466;2023-04-28T15:21:40;19.30;99.90
18446;DHT22;9352;50.888;4.466;2023-04-28T15:24:09;19.10;99.90
18446;DHT22;9352;50.888;4.466;2023-04-28T15:26:35;18.90;99.90
18446;DHT22;9352;50.888;4.466;2023-04-28T15:29:03;19.00;99.90
18446;DHT22;9352;50.888;4.466;2023-04-28T15:31:29;18.70;99.90
18446;DHT22;9352;50.888;4.466;2023-04-28T15:33:56;18.60;99.90
18446;DHT22;9352;50.888;4.466;2023-04-28T15:36:24;18.50;99.90
18446;DHT22;9352;50.888;4.466;2023-04-28T15:38:51;18.40;99.90
18446;DHT22;9352;50.888;4.466;2023-04-28T15:41:20;18.30;99.90
18446;DHT22;9352;50.888;4.466;2023-04-28T15:43:47;18.10;99.90
18446;DHT22;9352;50.888;4.466;2023-04-28T15:46:15;17.90;99.90
18446;DHT22;9352;50.888;4.466;2023-04-28T15:48:42;17.70;99.90
18446;DHT22;9352;50.888;4.466;2023-04-28T15:51:09;17.60;99.90
18446;DHT22;9352;50.888;4.466;2023-04-28T15:53:37;17.50;99.90